METAR Data
IDs: Format: Raw Decoded Include TAF

Data at: 1633 UTC 03 Dec 2021

ESDF 031620Z 07001KT 7000 -SG OVC035 M04/M05 Q1000